Time;durP1;ratioP1;P1;durP2;ratioP2;P2;SDS_P1;SDS_P2;PMS_P1;PMS_P2;Temp;Humidity;BMP_temperature;BMP_pressure;BME280_temperature;BME280_humidity;BME280_pressure;Samples;Min_cycle;Max_cycle;Signal;HPM_P1;HPM_P2
2023/02/13 00:00:24;;;;;;;32.03;17.92;;;7.40;99.90;;;;;;5068244;28;20039;-46
2023/02/13 00:02:50;;;;;;;35.83;18.73;;;7.40;99.90;;;;;;5068341;28;20021;-48
2023/02/13 00:05:15;;;;;;;37.88;19.63;;;7.40;99.90;;;;;;5068421;28;20039;-46
2023/02/13 00:07:41;;;;;;;35.33;18.17;;;7.40;99.90;;;;;;5068500;28;20488;-46
2023/02/13 00:10:07;;;;;;;35.50;18.27;;;7.40;99.90;;;;;;5068632;28;20028;-46
2023/02/13 00:12:33;;;;;;;37.50;19.48;;;7.40;99.90;;;;;;5068068;28;20107;-46
2023/02/13 00:14:59;;;;;;;35.40;18.15;;;7.40;99.90;;;;;;5068452;28;20023;-49
2023/02/13 00:17:25;;;;;;;35.60;18.73;;;7.40;99.90;;;;;;5068289;28;20021;-46
2023/02/13 00:19:51;;;;;;;39.97;19.52;;;7.40;99.90;;;;;;5068090;28;20403;-47
2023/02/13 00:22:16;;;;;;;30.92;17.30;;;7.40;99.90;;;;;;5063225;28;20033;-46
2023/02/13 00:24:42;;;;;;;39.40;18.55;;;7.40;99.90;;;;;;5049080;28;20086;-46
2023/02/13 00:27:08;;;;;;;37.55;19.67;;;7.40;99.90;;;;;;5051682;28;20025;-46
2023/02/13 00:29:33;;;;;;;38.90;18.40;;;7.40;99.90;;;;;;5051786;28;20396;-46
2023/02/13 00:32:00;;;;;;;41.47;19.48;;;7.40;99.90;;;;;;5051040;28;20052;-46
2023/02/13 00:34:26;;;;;;;34.42;18.52;;;7.40;99.90;;;;;;5051399;28;20021;-45
2023/02/13 00:36:51;;;;;;;38.65;19.42;;;7.40;99.90;;;;;;5051513;28;20040;-46
2023/02/13 00:39:17;;;;;;;34.17;18.20;;;7.40;99.90;;;;;;5050265;28;20048;-46
2023/02/13 00:41:42;;;;;;;33.53;17.88;;;7.40;99.90;;;;;;5050726;28;20028;-46
2023/02/13 00:44:09;;;;;;;38.80;19.58;;;7.40;99.90;;;;;;5051336;28;20403;-46
2023/02/13 00:46:35;;;;;;;32.88;17.52;;;7.40;99.90;;;;;;5051076;28;20365;-47
2023/02/13 00:49:00;;;;;;;35.15;17.83;;;7.40;99.90;;;;;;5051059;28;20021;-46
2023/02/13 00:51:27;;;;;;;36.78;17.42;;;7.40;99.90;;;;;;5066345;28;20543;-46
2023/02/13 00:53:52;;;;;;;33.75;17.00;;;7.40;99.90;;;;;;5051413;28;20278;-46
2023/02/13 00:56:18;;;;;;;38.65;18.65;;;7.40;99.90;;;;;;5050964;28;20057;-46
2023/02/13 00:58:44;;;;;;;31.70;17.33;;;7.40;99.90;;;;;;5050874;28;20104;-45
2023/02/13 01:01:10;;;;;;;38.25;18.88;;;7.40;99.90;;;;;;5050468;28;20056;-45
2023/02/13 01:03:35;;;;;;;33.72;18.08;;;7.40;99.90;;;;;;5051242;28;20481;-49
2023/02/13 01:06:01;;;;;;;35.75;19.08;;;7.40;99.90;;;;;;5051500;28;20021;-46
2023/02/13 01:08:29;;;;;;;39.88;18.50;;;7.40;99.90;;;;;;5051102;28;20436;-46
2023/02/13 01:10:55;;;;;;;36.42;19.42;;;7.40;99.90;;;;;;5050389;28;20365;-45
2023/02/13 01:13:21;;;;;;;40.40;17.42;;;7.40;99.90;;;;;;5051028;28;20515;-45
2023/02/13 01:15:47;;;;;;;33.10;18.10;;;7.40;99.90;;;;;;5051319;28;20068;-46
2023/02/13 01:18:18;;;;;;;38.15;18.98;;;7.40;99.90;;;;;;5050863;28;20396;-45
2023/02/13 01:20:44;;;;;;;38.80;19.98;;;7.40;99.90;;;;;;5050429;28;20033;-46
2023/02/13 01:23:11;;;;;;;41.20;18.58;;;7.40;99.90;;;;;;5065814;28;20024;-46
2023/02/13 01:25:42;;;;;;;35.05;18.48;;;7.40;99.90;;;;;;5059774;28;20055;-48
2023/02/13 01:28:08;;;;;;;34.50;17.55;;;7.40;99.90;;;;;;5070289;28;20033;-46
2023/02/13 01:30:34;;;;;;;42.08;19.75;;;7.40;99.90;;;;;;5070120;28;20021;-46
2023/02/13 01:32:59;;;;;;;36.53;19.10;;;7.40;99.90;;;;;;5070522;28;20496;-48
2023/02/13 01:35:25;;;;;;;34.05;17.35;;;7.40;99.90;;;;;;5070342;28;20024;-47
2023/02/13 01:37:51;;;;;;;39.85;18.50;;;7.40;99.90;;;;;;5070266;28;20056;-50
2023/02/13 01:40:16;;;;;;;37.20;18.40;;;7.40;99.90;;;;;;5070061;28;20078;-47
2023/02/13 01:42:42;;;;;;;37.17;18.33;;;7.40;99.90;;;;;;5068518;28;20071;-48
2023/02/13 01:45:27;;;;;;;37.65;18.30;;;7.40;99.90;;;;;;5070403;28;20087;-46
2023/02/13 01:47:58;;;;;;;40.15;18.30;;;7.40;99.90;;;;;;5050354;28;20089;-46
2023/02/13 01:50:42;;;;;;;41.22;17.98;;;7.30;99.90;;;;;;5049752;28;20053;-47
2023/02/13 01:53:13;;;;;;;40.15;18.58;;;7.30;99.90;;;;;;5050016;28;20043;-47
2023/02/13 01:55:47;;;;;;;38.67;18.45;;;7.20;99.90;;;;;;5050050;28;20021;-47
2023/02/13 01:58:17;;;;;;;39.97;18.10;;;7.20;99.90;;;;;;5050197;28;20139;-46
2023/02/13 02:00:48;;;;;;;37.88;18.92;;;7.20;99.90;;;;;;5049574;28;20545;-53
2023/02/13 02:03:37;;;;;;;39.92;18.33;;;7.30;99.90;;;;;;5050238;28;20033;-47
2023/02/13 02:06:03;;;;;;;38.03;17.40;;;7.20;99.90;;;;;;5049522;28;20033;-47
2023/02/13 02:08:30;;;;;;;36.20;17.55;;;7.30;99.90;;;;;;5065407;28;20507;-46
2023/02/13 02:11:00;;;;;;;38.60;17.85;;;7.30;99.90;;;;;;5048296;28;20449;-46
2023/02/13 02:13:25;;;;;;;38.10;17.63;;;7.30;99.90;;;;;;5049887;28;20028;-46
2023/02/13 02:15:51;;;;;;;35.55;18.23;;;7.20;99.90;;;;;;5049706;28;20388;-46
2023/02/13 02:18:22;;;;;;;37.35;18.00;;;7.30;99.90;;;;;;5064840;28;20074;-46
2023/02/13 02:21:25;;;;;;;37.03;17.38;;;7.20;99.90;;;;;;5064417;28;20037;-46
2023/02/13 02:24:28;;;;;;;36.75;17.92;;;7.20;99.90;;;;;;5057630;28;20108;-46
2023/02/13 02:27:19;;;;;;;32.80;15.15;;;7.20;99.90;;;;;;5049458;28;20565;-47
2023/02/13 02:30:18;;;;;;;28.00;14.57;;;7.20;99.90;;;;;;5042501;28;20099;-49
2023/02/13 02:32:56;;;;;;;32.00;14.95;;;7.20;99.90;;;;;;5049263;28;20027;-46
2023/02/13 02:35:45;;;;;;;28.48;14.65;;;7.20;99.90;;;;;;5049619;28;20040;-45
2023/02/13 02:38:25;;;;;;;30.48;13.77;;;7.30;99.90;;;;;;5040901;28;20044;-45
2023/02/13 02:44:47;;;;;;;27.48;13.38;;;7.30;99.90;;;;;;5049269;28;20027;-45
2023/02/13 02:50:46;;;;;;;23.00;11.63;;;7.30;99.90;;;;;;5049229;28;20032;-45
2023/02/13 02:53:44;;;;;;;25.15;12.27;;;7.30;99.90;;;;;;5037903;28;20340;-45
2023/02/13 02:56:24;;;;;;;31.92;14.93;;;7.30;99.90;;;;;;5032442;28;20455;-46
2023/02/13 03:07:31;;;;;;;31.05;15.30;;;7.30;99.90;;;;;;5048790;28;20300;-38
2023/02/13 03:22:17;;;;;;;30.92;15.85;;;7.30;99.90;;;;;;5048848;28;20059;-39
2023/02/13 03:24:51;;;;;;;30.55;14.02;;;7.30;99.90;;;;;;5043620;28;20080;-40
2023/02/13 03:30:44;;;;;;;30.38;14.82;;;7.30;99.90;;;;;;5048342;28;20086;-40
2023/02/13 03:33:09;;;;;;;31.88;15.18;;;7.30;99.90;;;;;;5048358;28;20095;-40
2023/02/13 03:39:10;;;;;;;30.00;14.82;;;7.30;99.90;;;;;;5047443;28;20119;-40
2023/02/13 03:41:49;;;;;;;29.98;14.55;;;7.30;99.90;;;;;;5046924;28;20109;-40
2023/02/13 03:44:36;;;;;;;28.33;14.15;;;7.30;99.90;;;;;;5045803;28;20541;-40
2023/02/13 03:47:04;;;;;;;30.92;14.70;;;7.30;99.90;;;;;;5063153;28;20484;-40
2023/02/13 03:50:04;;;;;;;40.75;16.45;;;7.30;99.90;;;;;;5062759;28;20063;-40
2023/02/13 03:52:42;;;;;;;32.45;15.20;;;7.20;99.90;;;;;;5045574;28;20029;-40
2023/02/13 04:01:21;;;;;;;28.80;14.40;;;7.30;99.90;;;;;;5047804;28;20089;-40
2023/02/13 04:03:55;;;;;;;32.58;16.17;;;7.30;99.90;;;;;;5066625;28;20017;-39
2023/02/13 04:06:28;;;;;;;34.55;16.08;;;7.30;99.90;;;;;;5048883;28;20021;-39
2023/02/13 04:08:54;;;;;;;29.42;15.07;;;7.20;99.90;;;;;;5048942;28;20507;-39
2023/02/13 04:11:44;;;;;;;33.70;16.10;;;7.30;99.90;;;;;;5050778;28;20064;-40
2023/02/13 04:14:24;;;;;;;34.38;16.13;;;7.20;99.90;;;;;;5050428;28;20086;-39
2023/02/13 04:16:56;;;;;;;33.17;15.82;;;7.30;99.90;;;;;;5051820;28;20515;-39
2023/02/13 04:19:24;;;;;;;36.90;17.13;;;7.20;99.90;;;;;;5051423;28;20500;-39
2023/02/13 04:21:55;;;;;;;33.67;17.27;;;7.20;99.90;;;;;;5050930;28;20039;-39
2023/02/13 04:24:21;;;;;;;32.50;16.35;;;7.20;99.90;;;;;;5051490;28;20066;-39
2023/02/13 04:26:46;;;;;;;36.28;17.52;;;7.20;99.90;;;;;;5051289;28;20062;-39
2023/02/13 04:29:12;;;;;;;30.30;14.88;;;7.20;99.90;;;;;;5051709;28;20443;-39
2023/02/13 04:31:39;;;;;;;32.97;16.23;;;7.20;99.90;;;;;;5051183;28;20087;-39
2023/02/13 04:34:04;;;;;;;37.42;15.55;;;7.20;99.90;;;;;;5051689;28;20029;-42
2023/02/13 04:36:30;;;;;;;30.98;15.20;;;7.20;99.90;;;;;;5051485;28;20108;-40
2023/02/13 04:38:56;;;;;;;29.98;14.23;;;7.20;99.90;;;;;;5051503;28;20025;-39
2023/02/13 04:41:21;;;;;;;34.83;15.43;;;7.20;99.90;;;;;;5050592;28;20028;-39
2023/02/13 04:43:48;;;;;;;31.02;14.88;;;7.20;99.90;;;;;;5051190;28;20040;-39
2023/02/13 04:46:13;;;;;;;30.77;15.23;;;7.20;99.90;;;;;;5051121;28;20086;-39
2023/02/13 04:48:39;;;;;;;28.90;13.88;;;7.30;99.90;;;;;;5051180;28;20045;-40
2023/02/13 04:51:05;;;;;;;29.65;14.10;;;7.30;99.90;;;;;;5050645;28;20388;-39
2023/02/13 04:53:30;;;;;;;28.80;14.05;;;7.30;99.90;;;;;;5050978;28;20032;-40
2023/02/13 04:55:56;;;;;;;25.52;12.82;;;7.30;99.90;;;;;;5065826;28;20033;-40
2023/02/13 04:58:21;;;;;;;26.80;13.30;;;7.20;99.90;;;;;;5050928;28;20422;-39
2023/02/13 05:00:47;;;;;;;25.02;12.40;;;7.20;99.90;;;;;;5050149;28;20412;-38
2023/02/13 05:03:12;;;;;;;24.73;12.32;;;7.30;99.90;;;;;;5051006;28;20029;-38
2023/02/13 05:05:39;;;;;;;26.92;14.10;;;7.30;99.90;;;;;;5050731;28;20028;-39
2023/02/13 05:08:08;;;;;;;29.58;12.38;;;7.20;99.90;;;;;;5050954;28;20075;-38
2023/02/13 05:10:34;;;;;;;28.95;15.25;;;7.20;99.90;;;;;;5048324;28;20497;-39
2023/02/13 05:13:00;;;;;;;30.25;12.77;;;7.20;99.90;;;;;;5051099;28;20362;-40
2023/02/13 05:15:26;;;;;;;23.38;11.57;;;7.30;99.90;;;;;;5050422;28;20071;-40
2023/02/13 05:17:52;;;;;;;26.38;11.75;;;7.30;99.90;;;;;;5049212;28;20470;-39
2023/02/13 05:20:18;;;;;;;21.30;11.38;;;7.20;99.90;;;;;;5050219;28;20061;-39
2023/02/13 05:25:38;;;;;;;22.25;11.43;;;7.20;99.90;;;;;;5050181;28;20032;-39
2023/02/13 05:28:04;;;;;;;23.17;10.93;;;7.30;99.90;;;;;;5050495;28;20754;-39
2023/02/13 05:30:30;;;;;;;27.73;13.35;;;7.20;99.90;;;;;;5065366;28;20147;-39
2023/02/13 05:32:55;;;;;;;25.55;12.52;;;7.20;99.90;;;;;;5050400;28;20108;-39
2023/02/13 05:35:22;;;;;;;26.10;12.27;;;7.20;99.90;;;;;;5050426;28;20056;-39
2023/02/13 05:37:47;;;;;;;22.67;11.50;;;7.30;99.90;;;;;;5050153;28;20109;-39
2023/02/13 05:40:14;;;;;;;23.15;10.55;;;7.20;99.90;;;;;;5048694;28;20115;-40
2023/02/13 05:42:41;;;;;;;22.35;10.52;;;7.30;99.90;;;;;;5064912;28;20059;-42
2023/02/13 05:45:07;;;;;;;21.85;10.15;;;7.30;99.90;;;;;;5049956;28;20013;-39
2023/02/13 05:47:33;;;;;;;18.42;9.77;;;7.20;99.90;;;;;;5050013;28;20071;-39
2023/02/13 05:49:59;;;;;;;20.30;9.63;;;7.20;99.90;;;;;;5050073;28;20025;-39
2023/02/13 05:52:24;;;;;;;19.98;9.73;;;7.20;99.90;;;;;;5049266;28;20021;-39
2023/02/13 05:54:50;;;;;;;21.55;9.82;;;7.20;99.90;;;;;;5049584;28;20024;-39
2023/02/13 05:57:16;;;;;;;24.45;11.50;;;7.20;99.90;;;;;;5049725;28;20399;-39
2023/02/13 05:59:41;;;;;;;20.70;10.57;;;7.20;99.90;;;;;;5050006;28;20049;-39
2023/02/13 06:02:07;;;;;;;20.60;9.93;;;7.20;99.90;;;;;;5049557;28;20032;-39
2023/02/13 06:04:32;;;;;;;21.50;9.30;;;7.20;99.90;;;;;;5049994;28;20035;-40
2023/02/13 06:06:58;;;;;;;19.23;9.52;;;7.10;99.90;;;;;;5049788;28;20025;-39
2023/02/13 06:09:24;;;;;;;20.90;9.75;;;7.20;99.90;;;;;;5049527;28;20309;-39
2023/02/13 06:11:49;;;;;;;22.50;11.05;;;7.10;99.90;;;;;;5048940;28;20052;-39
2023/02/13 06:14:15;;;;;;;22.25;10.48;;;7.20;99.90;;;;;;5049406;28;20029;-39
2023/02/13 06:16:41;;;;;;;23.10;10.98;;;7.20;99.90;;;;;;5063698;28;20021;-39
2023/02/13 06:19:07;;;;;;;22.77;11.77;;;7.20;99.90;;;;;;5047557;28;20506;-39
2023/02/13 06:21:36;;;;;;;21.33;10.57;;;7.20;99.90;;;;;;5061820;28;20108;-40
2023/02/13 06:24:03;;;;;;;21.50;10.05;;;7.20;99.90;;;;;;5048868;28;20014;-39
2023/02/13 06:26:28;;;;;;;19.33;10.20;;;7.20;99.90;;;;;;5044859;28;20051;-40
2023/02/13 06:28:54;;;;;;;20.17;9.73;;;7.20;99.90;;;;;;5046453;28;20028;-40
2023/02/13 06:31:19;;;;;;;19.27;9.05;;;7.20;99.90;;;;;;5047443;28;20095;-40
2023/02/13 06:33:45;;;;;;;27.08;11.65;;;7.20;99.90;;;;;;5047417;28;20029;-41
2023/02/13 06:36:10;;;;;;;21.08;10.65;;;7.20;99.90;;;;;;5049516;28;20421;-40
2023/02/13 06:38:36;;;;;;;30.15;12.57;;;7.20;99.90;;;;;;5049074;28;20040;-41
2023/02/13 06:41:01;;;;;;;21.95;9.77;;;7.20;99.90;;;;;;5048283;28;20025;-39
2023/02/13 06:43:27;;;;;;;24.23;11.50;;;7.20;99.90;;;;;;5064055;28;20025;-39
2023/02/13 06:45:53;;;;;;;20.45;9.85;;;7.20;99.90;;;;;;5048492;28;20024;-39
2023/02/13 06:48:19;;;;;;;20.40;11.07;;;7.20;99.90;;;;;;5048394;28;20047;-39
2023/02/13 06:50:44;;;;;;;22.38;10.40;;;7.20;99.90;;;;;;5048121;28;20024;-39
2023/02/13 06:53:10;;;;;;;18.73;11.10;;;7.20;99.90;;;;;;5048431;28;20017;-39
2023/02/13 06:55:38;;;;;;;22.63;10.55;;;7.20;99.90;;;;;;5048193;28;20021;-39
2023/02/13 06:58:04;;;;;;;19.90;10.07;;;7.20;99.90;;;;;;5047397;28;20559;-39
2023/02/13 07:00:29;;;;;;;22.90;9.75;;;7.20;99.90;;;;;;5048936;28;20112;-42
2023/02/13 07:03:01;;;;;;;25.00;11.73;;;7.20;99.90;;;;;;5048766;28;20016;-38
2023/02/13 07:05:26;;;;;;;22.70;11.32;;;7.20;99.90;;;;;;5049916;28;20495;-39
2023/02/13 07:07:52;;;;;;;23.48;11.95;;;7.20;99.90;;;;;;5049953;28;20108;-39
2023/02/13 07:10:17;;;;;;;21.63;11.73;;;7.20;99.90;;;;;;5050135;28;20033;-38
2023/02/13 07:12:43;;;;;;;22.23;11.55;;;7.20;99.90;;;;;;5049920;28;20035;-39
2023/02/13 07:15:09;;;;;;;24.55;11.40;;;7.20;99.90;;;;;;5050135;28;20021;-39
2023/02/13 07:17:35;;;;;;;25.67;12.35;;;7.20;99.90;;;;;;5050050;28;20082;-39
2023/02/13 07:20:00;;;;;;;24.35;12.05;;;7.20;99.90;;;;;;5049972;28;20029;-40
2023/02/13 07:22:26;;;;;;;24.23;11.77;;;7.20;99.90;;;;;;5049232;28;20021;-40
2023/02/13 07:24:51;;;;;;;22.92;11.63;;;7.20;99.90;;;;;;5050013;28;20017;-39
2023/02/13 07:27:17;;;;;;;25.70;12.38;;;7.20;99.90;;;;;;5049999;28;20048;-40
2023/02/13 07:29:43;;;;;;;24.75;11.82;;;7.30;99.90;;;;;;5049893;28;20036;-40
2023/02/13 07:32:09;;;;;;;26.63;12.45;;;7.30;99.90;;;;;;5049052;28;20034;-40
2023/02/13 07:34:34;;;;;;;25.83;12.15;;;7.30;99.90;;;;;;5052355;28;20086;-39
2023/02/13 07:37:00;;;;;;;24.90;12.07;;;7.30;99.90;;;;;;5053710;28;20112;-40
2023/02/13 07:39:25;;;;;;;18.60;10.85;;;7.30;99.90;;;;;;5053895;28;20029;-40
2023/02/13 07:41:51;;;;;;;22.63;11.40;;;7.30;99.90;;;;;;5053242;28;20052;-45
2023/02/13 07:44:17;;;;;;;21.75;11.50;;;7.30;99.90;;;;;;5053687;28;20024;-40
2023/02/13 07:46:42;;;;;;;28.40;12.40;;;7.40;99.90;;;;;;5053736;28;20017;-40
2023/02/13 07:49:08;;;;;;;24.20;12.38;;;7.30;99.90;;;;;;5053438;28;20056;-40
2023/02/13 07:51:33;;;;;;;26.77;11.77;;;7.30;99.90;;;;;;5053010;28;20044;-40
2023/02/13 07:54:01;;;;;;;25.75;11.85;;;7.40;99.90;;;;;;5053640;28;20096;-40
2023/02/13 07:56:26;;;;;;;28.00;11.98;;;7.40;99.90;;;;;;5053453;28;20087;-40
2023/02/13 07:58:52;;;;;;;25.83;12.73;;;7.40;99.90;;;;;;5053393;28;20025;-40
2023/02/13 08:01:18;;;;;;;21.25;10.57;;;7.40;99.90;;;;;;5052735;28;20036;-42
2023/02/13 08:03:49;;;;;;;25.23;10.98;;;7.50;99.90;;;;;;5068537;28;20522;-40
2023/02/13 08:06:15;;;;;;;29.10;13.82;;;7.40;99.90;;;;;;5053103;28;20176;-40
2023/02/13 08:08:41;;;;;;;24.20;12.32;;;7.40;99.90;;;;;;5052654;28;20037;-40
2023/02/13 08:14:14;;;;;;;24.83;11.50;;;7.50;99.90;;;;;;5053334;28;20043;-40
2023/02/13 08:16:40;;;;;;;26.52;12.27;;;7.50;99.90;;;;;;5052425;28;20029;-40
2023/02/13 08:19:05;;;;;;;24.52;11.98;;;7.50;99.90;;;;;;5052671;28;20055;-40
2023/02/13 08:21:31;;;;;;;23.02;11.35;;;7.60;99.90;;;;;;5052073;28;20055;-40
2023/02/13 08:23:57;;;;;;;22.58;12.35;;;7.50;99.90;;;;;;5052719;28;20086;-40
2023/02/13 08:26:23;;;;;;;26.98;12.05;;;7.50;99.90;;;;;;5052396;28;20104;-40
2023/02/13 08:28:48;;;;;;;23.98;11.57;;;7.60;99.90;;;;;;5049579;28;20103;-46
2023/02/13 08:31:15;;;;;;;27.30;13.18;;;7.60;99.90;;;;;;5061321;28;20025;-40
2023/02/13 08:33:41;;;;;;;22.85;11.93;;;7.60;99.90;;;;;;5059424;28;20476;-40
2023/02/13 08:36:07;;;;;;;23.73;11.93;;;7.60;99.90;;;;;;5055894;28;20039;-40
2023/02/13 08:38:32;;;;;;;26.77;11.88;;;7.60;99.90;;;;;;5051091;28;20476;-40
2023/02/13 08:40:58;;;;;;;25.48;12.32;;;7.60;99.90;;;;;;5050313;28;20549;-40
2023/02/13 08:43:24;;;;;;;22.85;10.38;;;7.60;99.90;;;;;;5051188;28;20480;-40
2023/02/13 08:45:49;;;;;;;19.17;10.20;;;7.60;99.90;;;;;;5050033;28;20498;-40
2023/02/13 08:48:15;;;;;;;22.90;12.32;;;7.70;99.90;;;;;;5050555;28;20100;-40
2023/02/13 08:50:40;;;;;;;22.38;11.45;;;7.70;99.90;;;;;;5050099;28;20110;-41
2023/02/13 08:53:06;;;;;;;22.98;11.38;;;7.70;99.90;;;;;;5065941;28;20022;-40
2023/02/13 08:55:32;;;;;;;24.30;11.68;;;7.70;99.90;;;;;;5066052;28;20024;-41
2023/02/13 08:58:02;;;;;;;22.50;11.98;;;7.80;99.90;;;;;;5050965;28;20021;-40
2023/02/13 09:00:28;;;;;;;26.30;12.30;;;7.80;99.90;;;;;;5050345;28;20028;-40
2023/02/13 09:02:53;;;;;;;27.73;13.43;;;7.80;99.90;;;;;;5050460;28;20037;-40
2023/02/13 09:05:19;;;;;;;22.80;11.70;;;7.80;99.90;;;;;;5047349;28;20332;-40
2023/02/13 09:07:44;;;;;;;28.40;11.88;;;7.80;99.90;;;;;;5049049;28;20017;-40
2023/02/13 09:10:10;;;;;;;22.80;12.32;;;7.80;99.90;;;;;;5030263;28;20033;-40
2023/02/13 09:12:36;;;;;;;19.42;10.93;;;7.90;99.90;;;;;;5029754;28;20030;-40
2023/02/13 09:15:01;;;;;;;19.85;10.38;;;7.90;99.90;;;;;;5031203;28;20052;-40
2023/02/13 09:17:27;;;;;;;22.83;11.68;;;7.90;99.90;;;;;;5069982;28;20060;-40
2023/02/13 09:19:53;;;;;;;21.00;10.98;;;7.90;99.90;;;;;;5054864;28;20126;-40
2023/02/13 09:22:18;;;;;;;21.65;11.20;;;7.90;99.90;;;;;;5049581;28;20040;-40
2023/02/13 09:24:44;;;;;;;17.63;9.88;;;7.90;99.90;;;;;;5050934;28;20025;-41
2023/02/13 09:27:09;;;;;;;22.25;10.70;;;8.00;99.90;;;;;;5051175;28;20028;-40
2023/02/13 09:29:35;;;;;;;21.27;10.90;;;8.00;99.90;;;;;;5051000;28;20545;-40
2023/02/13 09:32:00;;;;;;;21.17;10.73;;;8.00;99.90;;;;;;5050282;28;20029;-40
2023/02/13 09:34:26;;;;;;;19.38;10.60;;;7.90;99.90;;;;;;5050290;28;20135;-40
2023/02/13 09:36:56;;;;;;;17.40;10.45;;;7.90;99.90;;;;;;5050145;28;20731;-41
2023/02/13 09:39:22;;;;;;;24.92;11.50;;;8.00;99.90;;;;;;5050089;28;20032;-40
2023/02/13 09:41:50;;;;;;;25.23;12.25;;;8.00;99.90;;;;;;5048849;28;20315;-40
2023/02/13 09:44:50;;;;;;;19.80;10.50;;;8.00;99.90;;;;;;5049979;28;20025;-41
2023/02/13 09:47:22;;;;;;;19.80;10.63;;;8.00;99.90;;;;;;5048711;28;20029;-40
2023/02/13 09:50:00;;;;;;;18.23;10.05;;;7.90;99.90;;;;;;5051029;28;20048;-40
2023/02/13 09:52:30;;;;;;;16.67;9.88;;;7.90;99.90;;;;;;5050897;28;20072;-40
2023/02/13 09:54:55;;;;;;;17.98;9.70;;;8.00;99.90;;;;;;5051374;28;20485;-41
2023/02/13 09:57:33;;;;;;;19.92;10.98;;;8.10;99.90;;;;;;5066539;28;20056;-40
2023/02/13 10:00:12;;;;;;;17.65;9.98;;;8.10;99.90;;;;;;5051395;28;20032;-40
2023/02/13 10:02:40;;;;;;;18.52;10.05;;;8.20;99.90;;;;;;5050608;28;20021;-40
2023/02/13 10:05:43;;;;;;;15.63;9.38;;;8.10;99.90;;;;;;5051010;28;20028;-40
2023/02/13 10:08:33;;;;;;;18.15;9.55;;;8.10;99.90;;;;;;5059021;28;20021;-41
2023/02/13 10:11:07;;;;;;;20.13;9.95;;;8.10;99.90;;;;;;5047287;28;20041;-41
2023/02/13 10:14:01;;;;;;;17.13;9.43;;;8.10;99.90;;;;;;5050683;28;20021;-40
2023/02/13 10:16:36;;;;;;;22.10;10.65;;;8.20;99.90;;;;;;5050947;28;20017;-41
2023/02/13 10:19:39;;;;;;;17.33;9.35;;;8.30;99.90;;;;;;5049450;28;20033;-41
2023/02/13 10:22:07;;;;;;;16.40;9.77;;;8.30;99.90;;;;;;5050028;28;20053;-40
2023/02/13 10:24:54;;;;;;;17.27;9.38;;;8.30;99.90;;;;;;5050355;28;20106;-41
2023/02/13 10:27:20;;;;;;;14.05;8.55;;;8.30;99.90;;;;;;5049750;28;20029;-40
2023/02/13 10:30:03;;;;;;;18.00;9.57;;;8.30;99.90;;;;;;5064173;28;20017;-40
2023/02/13 10:32:43;;;;;;;20.50;9.02;;;8.30;99.90;;;;;;5048710;28;20041;-39
2023/02/13 10:35:44;;;;;;;15.90;8.20;;;8.30;99.90;;;;;;5063506;28;20021;-39
2023/02/13 10:38:21;;;;;;;13.52;8.18;;;8.40;99.90;;;;;;5016301;28;20043;-40
2023/02/13 10:41:01;;;;;;;14.10;8.27;;;8.50;99.90;;;;;;5048872;28;20050;-40
2023/02/13 10:43:31;;;;;;;14.60;7.68;;;8.50;99.90;;;;;;5063965;28;20029;-40
2023/02/13 10:46:32;;;;;;;17.15;8.52;;;8.60;99.90;;;;;;5049724;28;20734;-39
2023/02/13 10:49:20;;;;;;;13.77;7.97;;;8.50;99.90;;;;;;5051729;28;20047;-39
2023/02/13 10:52:05;;;;;;;17.20;8.00;;;8.50;99.90;;;;;;5045930;28;20075;-42
2023/02/13 10:55:00;;;;;;;13.40;7.95;;;8.50;99.90;;;;;;5048016;28;20442;-39
2023/02/13 10:57:54;;;;;;;13.65;8.15;;;8.50;99.90;;;;;;5041610;28;20033;-39
2023/02/13 11:00:54;;;;;;;14.32;8.73;;;8.60;99.90;;;;;;5049112;28;20017;-40
2023/02/13 11:03:23;;;;;;;14.97;8.53;;;8.60;99.90;;;;;;5044655;28;20055;-40
2023/02/13 11:05:50;;;;;;;12.57;7.00;;;8.70;99.90;;;;;;5049663;28;20047;-40
2023/02/13 11:08:24;;;;;;;14.77;7.53;;;8.70;99.90;;;;;;5049601;28;20021;-40
2023/02/13 11:10:52;;;;;;;12.75;8.13;;;8.80;99.90;;;;;;5049214;28;20031;-39
2023/02/13 11:13:21;;;;;;;12.38;6.20;;;8.80;99.90;;;;;;5049396;28;20036;-40
2023/02/13 11:16:01;;;;;;;10.50;6.78;;;8.80;99.90;;;;;;5049633;28;20387;-39
2023/02/13 11:18:30;;;;;;;9.95;6.57;;;8.80;99.90;;;;;;5049231;28;20029;-39
2023/02/13 11:21:17;;;;;;;10.23;6.60;;;8.80;99.90;;;;;;5048713;28;20384;-39
2023/02/13 11:23:51;;;;;;;10.48;6.65;;;8.80;99.90;;;;;;5049923;28;20029;-40
2023/02/13 11:26:34;;;;;;;10.05;6.38;;;8.70;99.90;;;;;;5049903;28;20110;-40
2023/02/13 11:29:04;;;;;;;14.23;7.13;;;8.70;99.90;;;;;;5050042;28;20021;-39
2023/02/13 11:31:31;;;;;;;;;;;8.70;99.90;;;;;;5049923;28;20064;-39
2023/02/13 11:33:59;;;;;;;9.25;6.55;;;8.60;99.90;;;;;;5049648;28;19909;-39
2023/02/13 11:36:31;;;;;;;9.30;6.40;;;8.50;99.90;;;;;;5048473;28;20032;-39
2023/02/13 11:39:06;;;;;;;9.57;6.05;;;8.50;99.90;;;;;;5049502;28;20029;-39
2023/02/13 11:41:39;;;;;;;10.77;5.68;;;8.50;99.90;;;;;;5048987;28;20094;-39
2023/02/13 11:44:17;;;;;;;8.48;5.72;;;8.50;99.90;;;;;;5055397;28;20021;-39
2023/02/13 11:46:46;;;;;;;8.63;5.40;;;8.50;99.90;;;;;;5068360;28;20024;-39
2023/02/13 11:49:18;;;;;;;12.40;4.97;;;8.50;99.90;;;;;;5068274;28;20024;-39
2023/02/13 11:52:11;;;;;;;8.02;4.95;;;8.50;99.90;;;;;;5067782;28;20066;-39
2023/02/13 11:54:42;;;;;;;6.47;5.22;;;8.50;99.90;;;;;;5066918;28;20028;-39
2023/02/13 11:57:22;;;;;;;7.32;5.13;;;8.50;99.90;;;;;;5066635;28;20115;-39
2023/02/13 11:59:50;;;;;;;7.47;4.97;;;8.60;99.90;;;;;;5067174;28;20029;-39
2023/02/13 12:02:28;;;;;;;7.22;4.95;;;8.60;99.90;;;;;;5067603;28;20391;-39
2023/02/13 12:05:12;;;;;;;9.15;5.85;;;8.60;99.90;;;;;;5083926;28;20020;-39
2023/02/13 12:07:39;;;;;;;7.20;4.93;;;8.60;99.90;;;;;;5083764;28;20033;-39
2023/02/13 12:10:14;;;;;;;7.43;5.03;;;8.70;99.90;;;;;;5067799;28;20016;-39
2023/02/13 12:13:04;;;;;;;8.70;4.80;;;8.80;99.90;;;;;;5067257;28;20056;-39
2023/02/13 12:15:33;;;;;;;7.32;4.40;;;8.80;99.90;;;;;;5067801;28;20025;-40
2023/02/13 12:18:05;;;;;;;8.32;5.80;;;8.80;99.90;;;;;;5068074;28;20039;-41
2023/02/13 12:20:54;;;;;;;6.63;4.75;;;8.70;99.90;;;;;;5068330;28;20028;-40
2023/02/13 12:23:28;;;;;;;6.57;4.82;;;8.80;99.90;;;;;;5071893;28;20055;-40
2023/02/13 12:26:17;;;;;;;10.63;5.05;;;8.70;99.90;;;;;;5071392;28;20100;-40
2023/02/13 12:28:51;;;;;;;8.15;5.40;;;8.70;99.90;;;;;;5069992;28;20561;-40
2023/02/13 12:31:26;;;;;;;7.72;5.35;;;8.50;99.90;;;;;;5070814;28;20256;-40
2023/02/13 12:34:04;;;;;;;7.25;4.57;;;8.50;99.90;;;;;;5071261;28;20395;-40
2023/02/13 12:36:47;;;;;;;7.25;4.18;;;8.60;99.90;;;;;;5087192;28;20060;-40
2023/02/13 12:39:32;;;;;;;6.60;3.97;;;8.60;99.90;;;;;;5071519;28;20443;-40
2023/02/13 12:42:25;;;;;;;5.88;3.55;;;8.70;99.90;;;;;;5070860;28;20055;-40
2023/02/13 12:45:34;;;;;;;3.80;2.85;;;8.80;99.90;;;;;;5086890;28;20021;-40
2023/02/13 12:48:30;;;;;;;4.20;2.80;;;8.90;99.90;;;;;;5059659;28;20074;-40
2023/02/13 12:51:16;;;;;;;3.85;2.90;;;8.90;99.90;;;;;;5070819;28;20028;-40
2023/02/13 12:54:00;;;;;;;5.47;3.35;;;9.00;99.90;;;;;;5071221;28;20020;-40
2023/02/13 12:56:35;;;;;;;4.00;2.53;;;9.00;99.90;;;;;;5070995;28;20028;-40
2023/02/13 12:59:07;;;;;;;5.30;2.58;;;9.00;99.90;;;;;;5071153;28;20028;-40
2023/02/13 13:02:08;;;;;;;4.13;3.13;;;8.90;99.90;;;;;;5070139;28;20025;-40
2023/02/13 13:04:39;;;;;;;4.70;3.58;;;9.00;99.90;;;;;;5070736;28;20069;-40
2023/02/13 13:07:33;;;;;;;6.13;3.83;;;9.00;99.90;;;;;;5070823;28;20023;-40
2023/02/13 13:10:36;;;;;;;4.68;2.97;;;9.00;99.90;;;;;;5071443;28;20487;-40
2023/02/13 13:13:19;;;;;;;4.90;3.10;;;9.00;99.90;;;;;;5039116;28;20037;-40
2023/02/13 13:16:11;;;;;;;3.60;2.72;;;9.00;99.90;;;;;;5086040;28;20024;-40
2023/02/13 13:18:37;;;;;;;4.13;3.13;;;9.10;99.90;;;;;;5067343;28;20041;-40
2023/02/13 13:21:15;;;;;;;5.97;3.60;;;9.00;99.90;;;;;;5069946;28;20058;-40
2023/02/13 13:24:14;;;;;;;5.35;3.33;;;9.10;99.90;;;;;;5070790;28;20020;-40
2023/02/13 13:26:48;;;;;;;4.50;3.25;;;9.20;99.90;;;;;;5070363;28;20017;-40
2023/02/13 13:29:31;;;;;;;2.92;2.38;;;9.10;99.90;;;;;;5070287;28;20023;-40
2023/02/13 13:32:05;;;;;;;5.15;3.25;;;9.10;99.90;;;;;;5068258;28;20036;-40
2023/02/13 13:34:34;;;;;;;3.92;2.97;;;9.00;99.90;;;;;;5070498;28;20054;-40
2023/02/13 13:37:47;;;;;;;4.20;2.83;;;9.00;99.90;;;;;;5069902;28;20103;-39
2023/02/13 13:40:39;;;;;;;5.15;2.80;;;9.00;99.90;;;;;;5007326;28;20068;-40
2023/02/13 13:43:23;;;;;;;4.05;2.78;;;9.10;99.90;;;;;;5007721;28;20047;-40
2023/02/13 13:46:09;;;;;;;5.18;3.45;;;9.10;99.90;;;;;;5059426;28;20043;-39
2023/02/13 13:48:58;;;;;;;5.97;3.00;;;9.20;99.90;;;;;;5069887;28;20047;-39
2023/02/13 13:51:25;;;;;;;5.07;3.22;;;9.00;99.90;;;;;;5069352;28;20056;-39
2023/02/13 13:54:21;;;;;;;4.93;3.38;;;9.00;99.90;;;;;;5069684;28;20031;-40